Time;durP1;ratioP1;P1;durP2;ratioP2;P2;SDS_P1;SDS_P2;PMS_P1;PMS_P2;Temp;Humidity;BMP_temperature;BMP_pressure;BME280_temperature;BME280_humidity;BME280_pressure;Samples;Min_cycle;Max_cycle;Signal;HPM_P1;HPM_P2
2021/12/14 00:00:46;;;;;;;9.03;7.33;;;;;;;;;;5055864;28;20418;-60
2021/12/14 00:03:14;;;;;;;8.33;7.37;;;;;;;;;;5056293;28;20910;-58
2021/12/14 00:05:40;;;;;;;8.17;7.40;;;;;;;;;;5056145;28;20414;-54
2021/12/14 00:08:07;;;;;;;7.73;6.93;;;;;;;;;;5056119;28;20441;-55
2021/12/14 00:13:20;;;;;;;8.90;7.30;;;;;;;;;;5056403;28;20853;-58
2021/12/14 00:15:47;;;;;;;7.33;6.63;;;;;;;;;;5056227;28;20992;-55
2021/12/14 00:18:13;;;;;;;9.00;7.43;;;;;;;;;;5056085;28;20533;-54
2021/12/14 00:21:20;;;;;;;8.90;7.67;;;;;;;;;;5054299;28;20545;-58
2021/12/14 00:24:06;;;;;;;8.67;7.70;;;;;;;;;;4997721;28;20417;-61
2021/12/14 00:26:33;;;;;;;7.80;7.10;;;;;;;;;;5054865;28;20424;-55
2021/12/14 00:28:59;;;;;;;8.07;7.33;;;;;;;;;;5055780;28;20495;-61
2021/12/14 00:31:26;;;;;;;8.57;7.43;;;;;;;;;;5055742;28;20466;-54
2021/12/14 00:33:55;;;;;;;8.50;7.03;;;;;;;;;;5055835;28;20449;-56
2021/12/14 00:36:21;;;;;;;8.97;7.20;;;;;;;;;;5054262;28;20480;-58
2021/12/14 00:38:54;;;;;;;7.27;6.60;;;;;;;;;;5055935;28;20400;-54
2021/12/14 00:41:22;;;;;;;6.97;6.27;;;;;;;;;;5055691;28;20411;-60
2021/12/14 00:43:47;;;;;;;7.17;6.47;;;;;;;;;;5055491;28;20741;-60
2021/12/14 00:46:14;;;;;;;7.60;6.90;;;;;;;;;;5054331;28;20410;-56
2021/12/14 00:48:42;;;;;;;10.77;7.27;;;;;;;;;;5055352;28;20433;-54
2021/12/14 00:51:08;;;;;;;7.43;6.77;;;;;;;;;;5055123;28;20493;-54
2021/12/14 00:53:34;;;;;;;8.23;6.73;;;;;;;;;;5055586;28;20435;-54
2021/12/14 00:56:04;;;;;;;7.07;6.30;;;;;;;;;;5053872;28;20776;-59
2021/12/14 00:58:30;;;;;;;7.10;6.40;;;;;;;;;;5055272;28;20461;-57
2021/12/14 01:00:58;;;;;;;7.57;6.40;;;;;;;;;;5055059;28;20431;-56
2021/12/14 01:03:25;;;;;;;7.17;6.57;;;;;;;;;;5055170;28;21011;-56
2021/12/14 01:05:52;;;;;;;6.50;6.00;;;;;;;;;;5053892;28;20416;-55
2021/12/14 01:08:20;;;;;;;6.13;5.63;;;;;;;;;;5053792;28;20415;-55
2021/12/14 01:11:01;;;;;;;7.13;6.43;;;;;;;;;;5055239;28;20467;-56
2021/12/14 01:13:29;;;;;;;7.07;6.53;;;;;;;;;;5054931;28;20415;-63
2021/12/14 01:16:19;;;;;;;6.30;5.80;;;;;;;;;;5054909;28;20553;-58
2021/12/14 01:19:00;;;;;;;6.40;5.80;;;;;;;;;;5055082;28;20418;-55
2021/12/14 01:21:44;;;;;;;7.10;6.40;;;;;;;;;;5054677;28;20426;-57
2021/12/14 01:24:23;;;;;;;6.23;5.73;;;;;;;;;;5053495;28;20522;-56
2021/12/14 01:26:49;;;;;;;5.67;5.27;;;;;;;;;;5053359;28;20424;-57
2021/12/14 01:29:18;;;;;;;5.03;4.63;;;;;;;;;;5054760;28;20503;-55
2021/12/14 01:31:46;;;;;;;5.33;5.00;;;;;;;;;;5054818;28;20471;-56
2021/12/14 01:34:17;;;;;;;4.50;4.20;;;;;;;;;;5054714;28;20515;-55
2021/12/14 01:36:47;;;;;;;4.60;4.30;;;;;;;;;;5054710;28;20423;-54
2021/12/14 01:41:57;;;;;;;4.80;4.60;;;;;;;;;;5054830;28;20491;-55
2021/12/14 01:44:24;;;;;;;7.03;4.93;;;;;;;;;;5054572;28;20407;-55
2021/12/14 01:46:55;;;;;;;5.10;4.70;;;;;;;;;;5054424;28;20415;-53
2021/12/14 01:49:23;;;;;;;6.07;5.60;;;;;;;;;;5054512;28;20442;-53
2021/12/14 01:51:52;;;;;;;6.10;5.70;;;;;;;;;;5054372;28;20970;-51
2021/12/14 01:54:20;;;;;;;7.00;6.30;;;;;;;;;;5054359;28;20529;-54
2021/12/14 01:56:46;;;;;;;6.57;6.07;;;;;;;;;;5053517;28;20423;-50
2021/12/14 01:59:17;;;;;;;6.43;5.93;;;;;;;;;;5054217;28;20416;-56
2021/12/14 02:01:55;;;;;;;6.90;6.30;;;;;;;;;;5054052;28;20430;-50
2021/12/14 02:04:22;;;;;;;6.47;5.90;;;;;;;;;;5054334;28;20422;-52
2021/12/14 02:06:53;;;;;;;6.63;6.13;;;;;;;;;;5054125;28;20503;-54
2021/12/14 02:09:19;;;;;;;6.80;6.23;;;;;;;;;;5053908;28;20434;-51
2021/12/14 02:11:50;;;;;;;7.77;6.97;;;;;;;;;;5053906;28;21003;-53
2021/12/14 02:14:17;;;;;;;7.97;7.10;;;;;;;;;;5054194;28;20458;-54
2021/12/14 02:16:43;;;;;;;7.27;6.67;;;;;;;;;;5052251;28;20412;-52
2021/12/14 02:19:13;;;;;;;7.80;7.10;;;;;;;;;;5052447;28;20419;-52
2021/12/14 02:21:39;;;;;;;8.20;6.80;;;;;;;;;;5054055;28;20416;-54
2021/12/14 02:24:06;;;;;;;7.13;6.53;;;;;;;;;;5053727;28;20415;-55
2021/12/14 02:26:33;;;;;;;7.67;6.90;;;;;;;;;;5053636;28;20458;-52
2021/12/14 02:29:01;;;;;;;6.90;6.27;;;;;;;;;;5053590;28;20404;-56
2021/12/14 02:31:28;;;;;;;7.20;6.60;;;;;;;;;;5053707;28;20474;-53
2021/12/14 02:33:55;;;;;;;7.33;6.73;;;;;;;;;;5053633;28;20411;-53
2021/12/14 02:36:24;;;;;;;8.03;7.30;;;;;;;;;;5053513;28;20740;-55
2021/12/14 02:38:55;;;;;;;8.70;7.80;;;;;;;;;;5053389;28;20420;-55
2021/12/14 02:41:22;;;;;;;7.87;7.17;;;;;;;;;;5053474;28;20400;-55
2021/12/14 02:43:49;;;;;;;9.53;8.20;;;;;;;;;;5053456;28;20415;-55
2021/12/14 02:46:20;;;;;;;9.53;8.53;;;;;;;;;;5053320;28;20410;-52
2021/12/14 02:48:48;;;;;;;10.17;8.70;;;;;;;;;;5053250;28;20503;-53
2021/12/14 02:51:17;;;;;;;10.20;9.03;;;;;;;;;;5053484;28;20828;-52
2021/12/14 02:53:45;;;;;;;9.73;8.47;;;;;;;;;;5053291;28;20410;-52
2021/12/14 02:56:16;;;;;;;9.50;8.50;;;;;;;;;;5052947;28;20900;-54
2021/12/14 02:58:43;;;;;;;9.70;8.73;;;;;;;;;;5052954;28;20911;-55
2021/12/14 03:01:09;;;;;;;9.17;8.30;;;;;;;;;;5053002;28;20926;-53
2021/12/14 03:03:35;;;;;;;8.60;7.80;;;;;;;;;;5052853;28;20404;-52
2021/12/14 03:06:02;;;;;;;8.03;7.17;;;;;;;;;;5052726;28;20441;-56
2021/12/14 03:08:33;;;;;;;8.27;7.50;;;;;;;;;;5053135;28;20408;-56
2021/12/14 03:11:11;;;;;;;8.43;7.63;;;;;;;;;;5052962;28;20581;-51
2021/12/14 03:13:39;;;;;;;8.40;7.50;;;;;;;;;;5052636;28;20430;-55
2021/12/14 03:16:09;;;;;;;11.47;8.20;;;;;;;;;;5052599;28;20418;-51
2021/12/14 03:18:37;;;;;;;9.60;8.30;;;;;;;;;;5052701;28;20500;-54
2021/12/14 03:21:05;;;;;;;9.57;8.00;;;;;;;;;;5052450;28;20459;-58
2021/12/14 03:23:37;;;;;;;8.90;8.10;;;;;;;;;;5052598;28;20407;-52
2021/12/14 03:26:04;;;;;;;9.27;8.30;;;;;;;;;;5052555;28;20887;-55
2021/12/14 03:28:31;;;;;;;9.10;8.20;;;;;;;;;;5051892;28;20403;-53
2021/12/14 03:31:26;;;;;;;8.27;7.47;;;;;;;;;;5052478;28;20463;-56
2021/12/14 03:33:54;;;;;;;9.17;8.27;;;;;;;;;;5043527;28;20424;-58
2021/12/14 03:36:24;;;;;;;8.27;7.50;;;;;;;;;;5051452;28;20408;-52
2021/12/14 03:38:56;;;;;;;8.40;7.53;;;;;;;;;;5052625;28;20415;-54
2021/12/14 03:41:27;;;;;;;8.30;7.53;;;;;;;;;;5052286;28;20942;-61
2021/12/14 03:43:59;;;;;;;10.00;8.23;;;;;;;;;;5052402;28;20812;-63
2021/12/14 03:46:29;;;;;;;8.90;8.00;;;;;;;;;;5052468;28;20406;-60
2021/12/14 03:48:55;;;;;;;9.00;8.20;;;;;;;;;;5052275;28;20412;-56
2021/12/14 03:51:22;;;;;;;9.73;7.20;;;;;;;;;;5052245;28;20474;-57
2021/12/14 03:53:49;;;;;;;7.80;7.10;;;;;;;;;;5052382;28;20488;-54
2021/12/14 03:56:16;;;;;;;11.30;7.87;;;;;;;;;;5052499;28;20780;-54
2021/12/14 03:58:42;;;;;;;10.47;8.00;;;;;;;;;;5052186;28;20880;-56
2021/12/14 04:01:08;;;;;;;8.67;7.87;;;;;;;;;;5052244;28;20403;-58
2021/12/14 04:03:34;;;;;;;8.70;7.90;;;;;;;;;;5052115;28;20419;-55
2021/12/14 04:06:02;;;;;;;9.83;7.90;;;;;;;;;;5052165;28;20435;-60
2021/12/14 04:08:29;;;;;;;8.87;8.07;;;;;;;;;;5052564;28;20900;-59
2021/12/14 04:10:56;;;;;;;8.87;7.97;;;;;;;;;;5051978;28;21092;-55
2021/12/14 04:13:25;;;;;;;8.30;7.50;;;;;;;;;;5052412;28;20403;-61
2021/12/14 04:15:51;;;;;;;9.33;8.43;;;;;;;;;;5052085;28;20408;-57
2021/12/14 04:18:17;;;;;;;8.70;7.83;;;;;;;;;;5052555;28;20411;-67
2021/12/14 04:20:44;;;;;;;12.73;7.83;;;;;;;;;;5052058;28;20825;-62
2021/12/14 04:23:13;;;;;;;8.47;7.70;;;;;;;;;;5052114;28;20407;-59
2021/12/14 04:25:40;;;;;;;9.10;8.20;;;;;;;;;;5052119;28;20476;-60
2021/12/14 04:28:09;;;;;;;9.60;8.33;;;;;;;;;;5052117;28;20422;-52
2021/12/14 04:30:35;;;;;;;9.03;7.63;;;;;;;;;;5051681;28;20498;-59
2021/12/14 04:33:03;;;;;;;9.03;8.13;;;;;;;;;;5052055;28;20408;-59
2021/12/14 04:35:34;;;;;;;9.43;8.47;;;;;;;;;;5051707;28;20415;-58
2021/12/14 04:38:07;;;;;;;9.70;8.70;;;;;;;;;;5051718;28;20412;-57
2021/12/14 04:54:07;;;;;;;9.00;8.10;;;;;;;;;;5055686;28;21063;-55
2021/12/14 04:56:43;;;;;;;9.70;8.70;;;;;;;;;;5055357;28;20484;-62
2021/12/14 04:59:09;;;;;;;10.00;8.60;;;;;;;;;;5055192;28;20918;-59
2021/12/14 05:01:37;;;;;;;10.23;9.17;;;;;;;;;;5055144;28;20486;-56
2021/12/14 05:04:05;;;;;;;10.83;8.77;;;;;;;;;;5055479;28;20177;-55
2021/12/14 05:06:54;;;;;;;8.37;7.67;;;;;;;;;;5055330;28;20807;-59
2021/12/14 05:09:23;;;;;;;9.00;8.07;;;;;;;;;;5053786;28;20427;-51
2021/12/14 05:11:54;;;;;;;9.50;8.53;;;;;;;;;;5055311;28;20831;-51
2021/12/14 05:14:21;;;;;;;9.13;8.20;;;;;;;;;;5055345;28;20418;-55
2021/12/14 05:16:47;;;;;;;8.47;7.63;;;;;;;;;;5055092;28;20408;-53
2021/12/14 05:19:13;;;;;;;8.70;7.90;;;;;;;;;;5054863;28;20415;-58
2021/12/14 05:21:47;;;;;;;8.40;7.60;;;;;;;;;;5054831;28;20416;-60
2021/12/14 05:24:15;;;;;;;9.30;7.97;;;;;;;;;;5055077;28;20461;-57
2021/12/14 05:26:42;;;;;;;8.13;7.40;;;;;;;;;;5054827;28;20416;-55
2021/12/14 05:29:10;;;;;;;8.50;7.70;;;;;;;;;;5054782;28;20501;-56
2021/12/14 05:31:42;;;;;;;7.67;6.97;;;;;;;;;;5054759;28;20475;-54
2021/12/14 05:34:08;;;;;;;8.33;7.53;;;;;;;;;;5054531;28;20487;-57
2021/12/14 05:36:34;;;;;;;8.83;7.90;;;;;;;;;;5054674;28;20427;-57
2021/12/14 05:39:07;;;;;;;8.30;7.50;;;;;;;;;;5054425;28;20752;-57
2021/12/14 05:44:19;;;;;;;9.17;8.20;;;;;;;;;;5054688;28;20529;-61
2021/12/14 05:46:50;;;;;;;8.03;7.33;;;;;;;;;;5054550;28;20402;-58
2021/12/14 05:49:18;;;;;;;8.53;7.73;;;;;;;;;;5054762;28;20505;-52
2021/12/14 05:51:44;;;;;;;8.47;7.57;;;;;;;;;;5053589;28;20463;-58
2021/12/14 05:54:10;;;;;;;7.90;7.10;;;;;;;;;;5054197;28;20861;-55
2021/12/14 05:56:36;;;;;;;7.80;7.10;;;;;;;;;;5054211;28;20447;-54
2021/12/14 05:59:03;;;;;;;7.40;6.73;;;;;;;;;;5054307;28;20440;-56
2021/12/14 06:01:31;;;;;;;8.70;7.90;;;;;;;;;;5054171;28;20419;-54
2021/12/14 06:04:00;;;;;;;7.40;6.70;;;;;;;;;;5054039;28;20475;-53
2021/12/14 06:06:29;;;;;;;9.10;8.20;;;;;;;;;;5053971;28;20416;-56
2021/12/14 06:09:07;;;;;;;8.00;7.30;;;;;;;;;;5054069;28;20450;-58
2021/12/14 06:11:33;;;;;;;8.93;7.90;;;;;;;;;;5053790;28;20524;-53
2021/12/14 06:13:59;;;;;;;8.30;7.50;;;;;;;;;;5054114;28;20404;-56
2021/12/14 06:16:33;;;;;;;7.87;7.17;;;;;;;;;;5053868;28;20446;-55
2021/12/14 06:19:14;;;;;;;8.10;7.37;;;;;;;;;;5053624;28;20542;-55
2021/12/14 06:21:40;;;;;;;7.83;7.13;;;;;;;;;;5053570;28;20500;-54
2021/12/14 06:24:07;;;;;;;7.73;6.90;;;;;;;;;;5053436;28;20404;-55
2021/12/14 06:26:38;;;;;;;8.70;7.80;;;;;;;;;;5053700;28;20458;-56
2021/12/14 06:29:13;;;;;;;8.57;7.77;;;;;;;;;;5053489;28;20545;-53
2021/12/14 06:31:41;;;;;;;9.80;8.00;;;;;;;;;;5053444;28;20466;-55
2021/12/14 06:34:20;;;;;;;9.13;8.10;;;;;;;;;;5053316;28;20404;-60
2021/12/14 06:37:02;;;;;;;8.73;7.40;;;;;;;;;;5052149;28;20420;-58
2021/12/14 06:39:28;;;;;;;9.23;8.00;;;;;;;;;;5053369;28;20412;-57
2021/12/14 06:42:04;;;;;;;8.73;7.23;;;;;;;;;;5053395;28;20404;-53
2021/12/14 06:44:30;;;;;;;9.50;8.33;;;;;;;;;;5053124;28;20435;-68
2021/12/14 06:46:56;;;;;;;9.23;7.50;;;;;;;;;;5053005;28;20541;-67
2021/12/14 06:49:22;;;;;;;11.10;8.13;;;;;;;;;;5052959;28;20418;-56
2021/12/14 06:51:53;;;;;;;9.00;8.10;;;;;;;;;;5053198;28;20467;-58
2021/12/14 06:54:24;;;;;;;8.63;7.80;;;;;;;;;;5053026;28;20414;-55
2021/12/14 06:56:52;;;;;;;10.83;8.37;;;;;;;;;;5052896;28;20541;-57
2021/12/14 06:59:21;;;;;;;9.70;7.60;;;;;;;;;;5053122;28;20506;-65
2021/12/14 07:01:49;;;;;;;8.73;7.83;;;;;;;;;;5052994;28;20438;-56
2021/12/14 07:04:45;;;;;;;8.50;7.60;;;;;;;;;;5051229;28;20506;-64
2021/12/14 07:07:13;;;;;;;8.87;7.37;;;;;;;;;;5050353;28;20501;-63
2021/12/14 07:09:42;;;;;;;8.80;7.33;;;;;;;;;;5052817;28;20506;-65
2021/12/14 07:12:13;;;;;;;8.53;7.67;;;;;;;;;;5052837;28;20423;-64
2021/12/14 07:14:42;;;;;;;8.03;7.37;;;;;;;;;;5051545;28;20411;-61
2021/12/14 07:17:11;;;;;;;14.33;7.87;;;;;;;;;;5052553;28;20419;-63
2021/12/14 07:19:48;;;;;;;10.23;7.63;;;;;;;;;;5050497;28;20820;-64
2021/12/14 07:22:34;;;;;;;10.17;7.40;;;;;;;;;;5052231;28;20451;-56
2021/12/14 07:25:20;;;;;;;8.17;7.37;;;;;;;;;;5044768;28;20495;-65
2021/12/14 07:27:54;;;;;;;8.77;7.23;;;;;;;;;;5051833;28;20424;-55
2021/12/14 07:30:20;;;;;;;8.60;7.70;;;;;;;;;;5051648;28;20533;-55
2021/12/14 07:32:52;;;;;;;9.67;7.60;;;;;;;;;;5052528;28;20411;-55
2021/12/14 07:35:18;;;;;;;8.73;7.30;;;;;;;;;;5051773;28;20419;-56
2021/12/14 07:37:44;;;;;;;10.10;7.90;;;;;;;;;;5051964;28;20420;-55
2021/12/14 07:40:11;;;;;;;8.00;7.23;;;;;;;;;;5051679;28;20411;-58
2021/12/14 07:42:36;;;;;;;8.53;7.73;;;;;;;;;;5050118;28;20431;-55
2021/12/14 07:45:03;;;;;;;9.80;8.80;;;;;;;;;;5050619;28;20962;-58
2021/12/14 07:47:29;;;;;;;9.00;7.97;;;;;;;;;;5049869;28;20412;-55
2021/12/14 07:49:56;;;;;;;8.60;7.70;;;;;;;;;;5051421;28;20419;-55
2021/12/14 07:52:24;;;;;;;11.83;8.53;;;;;;;;;;5050822;28;20733;-55
2021/12/14 07:54:53;;;;;;;9.60;7.73;;;;;;;;;;5050734;28;20876;-54
2021/12/14 07:57:28;;;;;;;8.40;7.60;;;;;;;;;;5051476;28;20430;-54
2021/12/14 07:59:55;;;;;;;9.00;7.87;;;;;;;;;;5051453;28;20423;-60
2021/12/14 08:02:23;;;;;;;11.67;8.10;;;;;;;;;;5051574;28;20411;-55
2021/12/14 08:04:58;;;;;;;9.23;8.30;;;;;;;;;;5051617;28;20896;-57
2021/12/14 08:07:27;;;;;;;10.97;8.40;;;;;;;;;;5051557;28;20473;-54
2021/12/14 08:09:54;;;;;;;9.50;8.03;;;;;;;;;;5051351;28;20407;-55
2021/12/14 08:12:38;;;;;;;10.43;8.27;;;;;;;;;;5051419;28;20491;-56
2021/12/14 08:15:06;;;;;;;8.93;7.97;;;;;;;;;;5054005;28;20466;-65
2021/12/14 08:17:33;;;;;;;10.23;8.97;;;;;;;;;;5054152;28;20427;-56
2021/12/14 08:19:59;;;;;;;9.20;8.30;;;;;;;;;;5055271;28;20447;-60
2021/12/14 08:22:30;;;;;;;10.37;8.50;;;;;;;;;;5055191;28;20816;-56
2021/12/14 08:24:57;;;;;;;10.13;9.13;;;;;;;;;;5055560;28;20403;-64
2021/12/14 08:27:24;;;;;;;11.80;8.93;;;;;;;;;;5055290;28;20467;-55
2021/12/14 08:29:52;;;;;;;11.20;10.00;;;;;;;;;;5053538;28;20408;-61
2021/12/14 08:32:21;;;;;;;12.47;9.53;;;;;;;;;;5055198;28;20428;-55
2021/12/14 08:34:48;;;;;;;12.47;10.00;;;;;;;;;;5055596;28;20427;-54
2021/12/14 08:37:16;;;;;;;16.40;8.90;;;;;;;;;;5055156;28;20511;-56
2021/12/14 08:39:49;;;;;;;12.27;9.10;;;;;;;;;;5055440;28;20460;-55
2021/12/14 08:42:20;;;;;;;12.53;9.60;;;;;;;;;;5059244;28;20446;-54
2021/12/14 08:44:52;;;;;;;10.53;9.43;;;;;;;;;;5054776;28;20480;-52
2021/12/14 08:47:27;;;;;;;10.67;9.53;;;;;;;;;;5052844;28;20399;-55
2021/12/14 08:49:54;;;;;;;11.17;9.60;;;;;;;;;;5054847;28;20403;-53
2021/12/14 08:52:21;;;;;;;13.73;10.20;;;;;;;;;;5052322;28;20491;-55
2021/12/14 08:54:48;;;;;;;12.53;10.00;;;;;;;;;;5051520;28;20435;-55
2021/12/14 08:57:19;;;;;;;12.00;9.70;;;;;;;;;;5051857;28;20415;-63
2021/12/14 08:59:47;;;;;;;12.50;9.80;;;;;;;;;;5051844;28;20411;-56
2021/12/14 09:02:15;;;;;;;12.93;10.57;;;;;;;;;;5051490;28;20825;-55
2021/12/14 09:04:44;;;;;;;13.40;10.40;;;;;;;;;;5051202;28;21031;-54
2021/12/14 09:07:12;;;;;;;14.93;10.60;;;;;;;;;;5051351;28;20420;-56
2021/12/14 09:09:42;;;;;;;13.53;10.93;;;;;;;;;;5051275;28;20426;-55
2021/12/14 09:12:11;;;;;;;13.50;10.70;;;;;;;;;;5051309;28;20738;-54
2021/12/14 09:14:38;;;;;;;13.97;10.50;;;;;;;;;;5051830;28;20806;-54
2021/12/14 09:17:07;;;;;;;13.33;10.03;;;;;;;;;;5049780;28;20504;-59
2021/12/14 09:19:36;;;;;;;13.93;10.60;;;;;;;;;;5051222;28;20455;-56
2021/12/14 09:22:06;;;;;;;15.47;10.10;;;;;;;;;;5050745;28;20404;-57
2021/12/14 09:24:33;;;;;;;13.93;10.50;;;;;;;;;;5051020;28;21019;-53
2021/12/14 09:27:01;;;;;;;15.20;10.67;;;;;;;;;;5050104;28;20410;-54
2021/12/14 09:29:28;;;;;;;12.43;10.57;;;;;;;;;;5050808;28;20483;-55
2021/12/14 09:31:56;;;;;;;13.50;10.43;;;;;;;;;;5050936;28;20471;-57
2021/12/14 09:34:23;;;;;;;16.80;10.70;;;;;;;;;;5050956;28;20565;-58
2021/12/14 09:36:51;;;;;;;17.67;11.57;;;;;;;;;;5050988;28;20400;-57
2021/12/14 09:39:26;;;;;;;15.47;11.50;;;;;;;;;;5050663;28;20511;-59
2021/12/14 09:41:53;;;;;;;13.17;10.77;;;;;;;;;;5049652;28;20403;-63
2021/12/14 09:44:21;;;;;;;16.70;11.10;;;;;;;;;;5050850;28;20416;-59
2021/12/14 09:46:48;;;;;;;15.03;11.83;;;;;;;;;;5051111;28;20396;-58
2021/12/14 09:49:15;;;;;;;18.50;11.53;;;;;;;;;;5050673;28;20412;-63
2021/12/14 09:51:43;;;;;;;17.80;11.80;;;;;;;;;;5050113;28;20527;-57
2021/12/14 09:54:10;;;;;;;13.67;11.50;;;;;;;;;;5048846;28;20412;-58
2021/12/14 09:56:39;;;;;;;16.07;12.00;;;;;;;;;;5050404;28;20419;-64
2021/12/14 09:59:06;;;;;;;14.13;11.40;;;;;;;;;;5050331;28;20404;-59
2021/12/14 10:01:34;;;;;;;13.83;11.30;;;;;;;;;;5050348;28;20407;-58
2021/12/14 10:04:02;;;;;;;14.40;10.63;;;;;;;;;;5048891;28;20432;-56
2021/12/14 10:06:30;;;;;;;16.73;11.43;;;;;;;;;;5050132;28;20404;-62
2021/12/14 10:09:00;;;;;;;16.20;11.20;;;;;;;;;;5049982;28;20419;-61
2021/12/14 10:14:23;;;;;;;14.43;11.40;;;;;;;;;;5026883;28;20392;-61
2021/12/14 10:16:50;;;;;;;14.70;11.30;;;;;;;;;;5050174;28;20510;-57
2021/12/14 10:19:19;;;;;;;15.33;11.40;;;;;;;;;;5049878;28;20443;-55
2021/12/14 10:21:50;;;;;;;13.60;10.70;;;;;;;;;;5049984;28;20800;-56
2021/12/14 10:24:17;;;;;;;16.93;11.63;;;;;;;;;;5048518;28;20419;-56
2021/12/14 10:26:45;;;;;;;15.10;11.33;;;;;;;;;;5049997;28;20908;-58
2021/12/14 10:29:12;;;;;;;17.37;12.33;;;;;;;;;;5049623;28;20474;-59
2021/12/14 10:31:44;;;;;;;15.70;11.37;;;;;;;;;;5050139;28;20578;-58
2021/12/14 10:34:19;;;;;;;18.40;12.10;;;;;;;;;;5049586;28;20419;-59
2021/12/14 10:36:48;;;;;;;14.33;10.83;;;;;;;;;;5047867;28;20408;-62
2021/12/14 10:39:36;;;;;;;13.23;10.77;;;;;;;;;;5049731;28;20507;-59
2021/12/14 10:44:52;;;;;;;14.27;10.80;;;;;;;;;;5049776;28;21003;-57
2021/12/14 10:47:20;;;;;;;14.60;11.70;;;;;;;;;;5049542;28;20916;-57
2021/12/14 10:49:46;;;;;;;15.23;11.30;;;;;;;;;;5047874;28;20420;-59
2021/12/14 10:52:14;;;;;;;14.07;11.00;;;;;;;;;;5049259;28;20453;-58
2021/12/14 10:54:42;;;;;;;16.77;11.77;;;;;;;;;;5048146;28;20763;-53
2021/12/14 10:57:11;;;;;;;16.97;12.07;;;;;;;;;;5049142;28;20875;-62
2021/12/14 10:59:39;;;;;;;15.67;11.07;;;;;;;;;;5049046;28;20470;-60
2021/12/14 11:02:06;;;;;;;21.43;12.53;;;;;;;;;;5049071;28;20411;-62
2021/12/14 11:04:53;;;;;;;16.57;11.27;;;;;;;;;;5048953;28;20517;-68
2021/12/14 11:07:24;;;;;;;20.03;11.47;;;;;;;;;;5049127;28;20407;-56
2021/12/14 11:09:55;;;;;;;18.83;11.50;;;;;;;;;;5049081;28;20889;-56
2021/12/14 11:12:27;;;;;;;19.57;12.07;;;;;;;;;;5049108;28;20415;-54
2021/12/14 11:15:13;;;;;;;14.87;11.60;;;;;;;;;;5048993;28;20416;-59
2021/12/14 11:20:33;;;;;;;19.17;12.60;;;;;;;;;;5048873;28;20513;-59
2021/12/14 11:22:59;;;;;;;16.40;11.83;;;;;;;;;;5049279;28;20990;-56
2021/12/14 11:25:27;;;;;;;17.97;11.87;;;;;;;;;;5048548;28;23079;-57
2021/12/14 11:28:00;;;;;;;14.87;12.10;;;;;;;;;;5048628;28;20444;-61
2021/12/14 11:30:28;;;;;;;14.43;11.27;;;;;;;;;;5048503;28;20462;-56
2021/12/14 11:33:13;;;;;;;21.10;12.07;;;;;;;;;;5048497;28;20427;-56
2021/12/14 11:35:42;;;;;;;13.47;11.00;;;;;;;;;;5048905;28;20395;-57
2021/12/14 11:38:23;;;;;;;15.00;11.57;;;;;;;;;;5048596;28;20408;-62
2021/12/14 11:40:49;;;;;;;14.33;11.60;;;;;;;;;;5048324;28;20503;-55
2021/12/14 11:43:17;;;;;;;16.67;12.20;;;;;;;;;;5048369;28;20705;-54
2021/12/14 11:45:46;;;;;;;14.30;11.43;;;;;;;;;;5051146;28;20395;-57
2021/12/14 11:48:12;;;;;;;20.80;11.93;;;;;;;;;;5048978;28;20752;-58
2021/12/14 11:50:40;;;;;;;15.80;12.30;;;;;;;;;;5058391;28;20463;-55
2021/12/14 11:53:06;;;;;;;16.00;12.10;;;;;;;;;;5054299;28;20464;-55
2021/12/14 11:55:32;;;;;;;16.07;11.93;;;;;;;;;;5055587;28;20908;-55
2021/12/14 11:58:07;;;;;;;16.17;12.00;;;;;;;;;;5055597;28;20441;-55
2021/12/14 12:00:37;;;;;;;16.63;12.10;;;;;;;;;;5055295;28;20472;-55
2021/12/14 12:03:20;;;;;;;17.53;12.63;;;;;;;;;;5055693;28;20411;-56
2021/12/14 12:06:00;;;;;;;16.13;12.30;;;;;;;;;;5055109;28;20427;-58
2021/12/14 12:11:12;;;;;;;18.30;12.57;;;;;;;;;;5055470;28;20465;-57
2021/12/14 12:13:39;;;;;;;16.17;11.97;;;;;;;;;;5055409;28;20491;-56
2021/12/14 12:16:13;;;;;;;15.83;12.33;;;;;;;;;;5055517;28;20418;-55
2021/12/14 12:18:59;;;;;;;19.77;13.20;;;;;;;;;;5055180;28;20399;-56
2021/12/14 12:21:29;;;;;;;17.10;12.90;;;;;;;;;;5054888;28;20415;-56
2021/12/14 12:23:55;;;;;;;16.43;12.90;;;;;;;;;;5055007;28;20411;-61
2021/12/14 12:26:25;;;;;;;18.40;12.07;;;;;;;;;;5055648;28;20473;-56
2021/12/14 12:28:52;;;;;;;18.23;12.90;;;;;;;;;;5055315;28;20419;-55
2021/12/14 12:31:20;;;;;;;18.80;14.07;;;;;;;;;;5054867;28;20513;-61
2021/12/14 12:33:51;;;;;;;17.00;12.40;;;;;;;;;;5054793;28;20414;-62
2021/12/14 12:36:19;;;;;;;17.73;11.93;;;;;;;;;;5055048;28;20425;-56
2021/12/14 12:38:45;;;;;;;21.80;14.20;;;;;;;;;;5055525;28;20407;-60
2021/12/14 12:41:11;;;;;;;19.20;11.80;;;;;;;;;;5054918;28;20461;-57
2021/12/14 12:43:41;;;;;;;18.93;13.07;;;;;;;;;;5053499;28;20411;-58
2021/12/14 12:46:10;;;;;;;18.57;12.80;;;;;;;;;;5055291;28;21590;-56
2021/12/14 12:48:44;;;;;;;18.47;13.07;;;;;;;;;;5055179;28;20880;-57
2021/12/14 12:51:11;;;;;;;19.30;12.80;;;;;;;;;;5054467;28;20458;-55
2021/12/14 12:53:37;;;;;;;19.77;13.33;;;;;;;;;;5054807;28;20439;-57
2021/12/14 12:56:14;;;;;;;16.47;12.03;;;;;;;;;;5054996;28;20915;-56
2021/12/14 12:58:49;;;;;;;18.00;13.23;;;;;;;;;;5054897;28;20427;-59
2021/12/14 13:01:17;;;;;;;19.97;13.07;;;;;;;;;;5053017;28;20849;-58
2021/12/14 13:03:44;;;;;;;17.60;12.53;;;;;;;;;;5050354;28;20485;-59
2021/12/14 13:06:14;;;;;;;18.67;12.97;;;;;;;;;;5052050;28;20511;-61
2021/12/14 13:08:45;;;;;;;21.20;13.50;;;;;;;;;;5051361;28;20435;-57
2021/12/14 13:11:16;;;;;;;19.30;12.57;;;;;;;;;;5051469;28;20559;-60
2021/12/14 13:13:45;;;;;;;19.60;13.80;;;;;;;;;;5050676;28;20415;-56
2021/12/14 13:16:16;;;;;;;20.37;13.83;;;;;;;;;;5051730;28;20414;-58
2021/12/14 13:18:43;;;;;;;19.50;13.47;;;;;;;;;;5051780;28;20403;-55
2021/12/14 13:21:13;;;;;;;20.47;13.30;;;;;;;;;;5051680;28;20483;-57
2021/12/14 13:23:39;;;;;;;19.67;14.00;;;;;;;;;;5049676;28;20908;-55
2021/12/14 13:26:25;;;;;;;26.33;15.07;;;;;;;;;;5051231;28;20421;-54
2021/12/14 13:28:53;;;;;;;19.10;13.53;;;;;;;;;;5030208;28;20800;-57
2021/12/14 13:31:25;;;;;;;23.00;15.17;;;;;;;;;;5051464;28;20851;-57
2021/12/14 13:33:51;;;;;;;24.57;15.13;;;;;;;;;;5051142;28;20974;-57
2021/12/14 13:36:17;;;;;;;22.23;14.93;;;;;;;;;;5051322;28;20896;-56
2021/12/14 13:38:44;;;;;;;24.70;14.97;;;;;;;;;;5049798;28;20415;-56
2021/12/14 13:41:18;;;;;;;20.10;14.13;;;;;;;;;;5051268;28;20443;-55
2021/12/14 13:43:44;;;;;;;28.30;13.97;;;;;;;;;;5051306;28;20426;-62
2021/12/14 13:46:10;;;;;;;22.63;14.13;;;;;;;;;;5050897;28;20420;-56
2021/12/14 13:48:38;;;;;;;20.27;14.20;;;;;;;;;;5048492;28;20416;-62
2021/12/14 13:51:12;;;;;;;22.63;15.00;;;;;;;;;;5050955;28;20854;-64
2021/12/14 13:53:38;;;;;;;27.13;15.27;;;;;;;;;;5050825;28;20418;-65
2021/12/14 13:56:06;;;;;;;22.20;15.03;;;;;;;;;;5051323;28;20423;-57
2021/12/14 13:58:33;;;;;;;23.00;14.50;;;;;;;;;;5051460;28;20412;-63
2021/12/14 14:01:12;;;;;;;24.20;14.87;;;;;;;;;;5049878;28;20415;-66
2021/12/14 14:03:40;;;;;;;22.07;14.60;;;;;;;;;;5051451;28;20564;-58
2021/12/14 14:06:12;;;;;;;24.23;15.10;;;;;;;;;;5051404;28;20423;-57
2021/12/14 14:08:58;;;;;;;21.80;15.20;;;;;;;;;;5050897;28;20499;-55
2021/12/14 14:11:28;;;;;;;25.23;15.30;;;;;;;;;;5042894;28;20472;-56
2021/12/14 14:13:57;;;;;;;21.70;14.30;;;;;;;;;;5050848;28;20422;-56
2021/12/14 14:16:23;;;;;;;25.23;16.20;;;;;;;;;;5049187;28;20430;-60
2021/12/14 14:18:51;;;;;;;25.73;15.40;;;;;;;;;;5050443;28;20471;-56
2021/12/14 14:21:26;;;;;;;26.20;15.60;;;;;;;;;;5050358;28;20477;-59
2021/12/14 14:23:52;;;;;;;26.43;16.40;;;;;;;;;;5050797;28;20610;-64
2021/12/14 14:26:19;;;;;;;27.93;16.63;;;;;;;;;;5050327;28;20522;-58
2021/12/14 14:28:53;;;;;;;23.80;15.50;;;;;;;;;;5050610;28;20498;-59
2021/12/14 14:31:34;;;;;;;26.43;15.93;;;;;;;;;;5050317;28;20561;-56
2021/12/14 14:34:01;;;;;;;25.83;15.47;;;;;;;;;;5050330;28;20416;-58
2021/12/14 14:36:30;;;;;;;24.93;15.17;;;;;;;;;;5050338;28;20780;-58
2021/12/14 14:39:11;;;;;;;27.07;16.30;;;;;;;;;;5050387;28;20779;-55
2021/12/14 14:41:40;;;;;;;25.13;15.27;;;;;;;;;;5049781;28;20438;-58
2021/12/14 14:44:14;;;;;;;27.37;16.33;;;;;;;;;;5049607;28;20454;-58
2021/12/14 14:46:43;;;;;;;23.00;15.57;;;;;;;;;;5050038;28;20785;-57
2021/12/14 14:49:13;;;;;;;24.47;16.90;;;;;;;;;;5049926;28;20469;-57
2021/12/14 14:51:47;;;;;;;23.63;15.33;;;;;;;;;;5049757;28;20553;-58
2021/12/14 14:54:28;;;;;;;25.97;16.60;;;;;;;;;;5050160;28;20415;-56
2021/12/14 14:56:55;;;;;;;26.97;16.20;;;;;;;;;;5050335;28;20404;-56
2021/12/14 14:59:21;;;;;;;29.30;16.67;;;;;;;;;;5049998;28;20991;-56
2021/12/14 15:01:47;;;;;;;26.00;16.17;;;;;;;;;;5049795;28;20406;-55
2021/12/14 15:04:13;;;;;;;26.10;16.40;;;;;;;;;;5049709;28;20532;-59
2021/12/14 15:06:40;;;;;;;27.10;17.20;;;;;;;;;;5049332;28;20415;-58
2021/12/14 15:09:11;;;;;;;27.70;15.83;;;;;;;;;;5049761;28;20702;-56
2021/12/14 15:11:51;;;;;;;29.23;17.27;;;;;;;;;;5049121;28;21031;-58
2021/12/14 15:14:19;;;;;;;23.80;15.80;;;;;;;;;;5049104;28;20411;-58
2021/12/14 15:17:05;;;;;;;25.23;16.00;;;;;;;;;;5050089;28;20416;-59
2021/12/14 15:19:37;;;;;;;24.80;16.30;;;;;;;;;;5042549;28;20505;-58